KHOU

William P Hobby Airport

Houston, Texas, USA
METAR KHOU 190453Z 07008KT 10SM FEW015 BKN050 BKN080 14/10 A2998 RMK AO2 SLP157 T01440100
Observed Flight Rules
Dec-19 @ 04:53 UTC (an hour ago) Visual Flight Rules
Wind Visibility Clouds
70° at 8 knots 10 miles
  • Few at 1,500' AGL
  • Broken at 5,000' AGL
  • Broken at 8,000' AGL
Temperatures Readings
Current 14°C / 57°F
Dewpoint 10°C / 50°F
Humidity 77%
Altimeter 29.98" Hg
Pressure 1015.7 hPa
Elevation 36
METAR KHOU 190453Z 07008KT 10SM FEW015 BKN050 BKN080 14/10 A2998 RMK AO2 SLP157 T01440100
Observed Flight Rules
Dec-19 @ 04:53 UTC
(an hour ago)
VFR
Wind Visibility
70° at 8 knots 10 miles
Clouds
  • Few at 1,500' AGL
  • Broken at 5,000' AGL
  • Broken at 8,000' AGL
Temperature Dewpoint
14°C / 57°F 10°C / 50°F
Humidity Altimeter Pressure
77% 29.98" Hg 1015.7 hPa